createdAt,value
2023-03-20T00:01:39.724Z,10.20
2023-03-20T00:03:41.524Z,10.20
2023-03-20T00:05:43.141Z,10.20
2023-03-20T00:07:45.149Z,10.20
2023-03-20T00:09:47.879Z,10.30
2023-03-20T00:11:50.704Z,10.20
2023-03-20T00:13:53.435Z,10.20
2023-03-20T00:15:55.159Z,10.20
2023-03-20T00:17:56.975Z,10.30
2023-03-20T00:19:58.686Z,10.40
2023-03-20T00:22:00.680Z,10.40
2023-03-20T00:24:02.858Z,10.40
2023-03-20T00:26:04.613Z,10.30
2023-03-20T00:28:32.591Z,10.20
2023-03-20T00:30:34.315Z,10.20
2023-03-20T00:32:36.106Z,10.20
2023-03-20T00:34:37.745Z,10.10
2023-03-20T00:36:39.709Z,10.10
2023-03-20T00:41:23.909Z,10.00
2023-03-20T00:43:29.568Z,10.00
2023-03-20T00:45:35.711Z,10.00
2023-03-20T00:47:44.873Z,10.00
2023-03-20T00:49:51.677Z,10.00
2023-03-20T00:51:53.927Z,10.10
2023-03-20T00:53:56.742Z,10.00
2023-03-20T00:55:58.917Z,10.10
2023-03-20T00:58:01.718Z,10.10
2023-03-20T01:00:05.986Z,10.10
2023-03-20T01:02:09.956Z,10.10
2023-03-20T01:04:14.064Z,10.00
2023-03-20T01:06:15.732Z,10.00
2023-03-20T01:08:18.813Z,10.00
2023-03-20T01:10:23.466Z,10.00
2023-03-20T01:12:26.562Z,10.00
2023-03-20T01:14:28.291Z,10.00
2023-03-20T01:16:29.987Z,9.90
2023-03-20T01:18:31.696Z,9.90
2023-03-20T01:20:33.433Z,9.90
2023-03-20T01:22:35.647Z,9.90
2023-03-20T01:24:39.678Z,9.90
2023-03-20T01:26:43.655Z,9.90
2023-03-20T01:28:46.015Z,9.90
2023-03-20T01:30:48.063Z,9.90
2023-03-20T01:32:50.155Z,9.90
2023-03-20T01:34:53.110Z,9.90
2023-03-20T01:36:56.165Z,10.00
2023-03-20T01:38:58.157Z,10.00
2023-03-20T01:41:03.529Z,9.90
2023-03-20T01:43:12.866Z,9.90
2023-03-20T01:45:16.904Z,9.90
2023-03-20T01:47:21.266Z,9.90
2023-03-20T01:49:22.987Z,9.90
2023-03-20T01:51:24.687Z,9.90
2023-03-20T01:53:28.950Z,9.80
2023-03-20T01:55:31.051Z,9.90
2023-03-20T01:57:32.745Z,9.80
2023-03-20T01:59:36.700Z,9.80
2023-03-20T02:01:39.545Z,9.80
2023-03-20T02:03:44.276Z,9.80
2023-03-20T02:05:46.297Z,9.80
2023-03-20T02:08:07.843Z,9.80
2023-03-20T02:10:12.676Z,9.80
2023-03-20T02:12:15.442Z,9.90
2023-03-20T02:14:20.224Z,9.80
2023-03-20T02:16:22.134Z,9.80
2023-03-20T02:18:24.436Z,9.90
2023-03-20T02:20:32.492Z,9.90
2023-03-20T02:22:34.229Z,9.90
2023-03-20T02:24:38.870Z,9.90
2023-03-20T02:26:40.587Z,10.00
2023-03-20T02:28:57.657Z,10.00
2023-03-20T02:31:17.598Z,10.00
2023-03-20T02:33:19.292Z,9.90
2023-03-20T02:35:47.947Z,9.90
2023-03-20T02:37:58.183Z,9.90
2023-03-20T02:40:09.097Z,9.90
2023-03-20T02:42:17.147Z,9.90
2023-03-20T02:44:24.450Z,9.90
2023-03-20T02:46:29.362Z,9.80
2023-03-20T02:48:43.521Z,9.80
2023-03-20T02:50:53.790Z,9.80
2023-03-20T02:52:55.469Z,9.80
2023-03-20T02:55:00.178Z,9.80
2023-03-20T02:57:07.320Z,9.80
2023-03-20T02:59:27.830Z,9.80
2023-03-20T03:01:33.366Z,9.70
2023-03-20T03:03:43.223Z,9.80
2023-03-20T03:05:48.104Z,9.80
2023-03-20T03:07:51.865Z,9.70
2023-03-20T03:09:56.034Z,9.70
2023-03-20T03:12:09.348Z,9.70
2023-03-20T03:14:17.360Z,9.70
2023-03-20T03:16:21.693Z,9.70
2023-03-20T03:18:25.523Z,9.70
2023-03-20T03:20:32.541Z,9.70
2023-03-20T03:22:34.754Z,9.70
2023-03-20T03:24:41.419Z,9.70
2023-03-20T03:26:43.525Z,9.70
2023-03-20T03:28:48.619Z,9.70
2023-03-20T03:30:51.227Z,9.70
2023-03-20T03:33:02.310Z,9.70
2023-03-20T03:35:07.982Z,9.80
2023-03-20T03:37:26.790Z,9.80
2023-03-20T03:39:34.669Z,9.80
2023-03-20T03:41:48.839Z,9.80
2023-03-20T03:44:00.143Z,9.70
2023-03-20T03:46:05.512Z,9.80
2023-03-20T03:48:08.965Z,9.70
2023-03-20T03:50:15.694Z,9.70
2023-03-20T03:52:21.449Z,9.70
2023-03-20T03:54:25.581Z,9.70
2023-03-20T03:56:29.740Z,9.70
2023-03-20T03:58:33.550Z,9.70
2023-03-20T04:00:35.535Z,9.70
2023-03-20T04:02:37.823Z,9.80
2023-03-20T04:04:42.977Z,9.80
2023-03-20T04:06:44.717Z,9.80
2023-03-20T04:08:46.640Z,9.70
2023-03-20T04:10:48.346Z,9.70
2023-03-20T04:12:50.295Z,9.70
2023-03-20T04:14:52.039Z,9.70
2023-03-20T04:16:53.697Z,9.70
2023-03-20T04:18:56.543Z,9.70
2023-03-20T04:20:58.174Z,9.70
2023-03-20T04:23:01.606Z,9.70
2023-03-20T04:25:08.860Z,9.70
2023-03-20T04:27:10.503Z,9.80
2023-03-20T04:29:13.417Z,9.80
2023-03-20T04:31:16.243Z,9.80
2023-03-20T04:33:18.003Z,9.70
2023-03-20T04:35:19.696Z,9.70
2023-03-20T04:37:21.528Z,9.70
2023-03-20T04:39:23.350Z,9.60
2023-03-20T04:41:25.158Z,9.60
2023-03-20T04:43:26.865Z,9.60
2023-03-20T04:45:28.494Z,9.60
2023-03-20T04:47:30.181Z,9.60
2023-03-20T04:49:31.901Z,9.60
2023-03-20T04:51:33.520Z,9.60
2023-03-20T04:53:35.535Z,9.50
2023-03-20T04:55:37.600Z,9.50
2023-03-20T04:57:39.363Z,9.50
2023-03-20T04:59:41.062Z,9.50
2023-03-20T05:01:42.928Z,9.50
2023-03-20T05:03:44.657Z,9.50
2023-03-20T05:05:46.520Z,9.50
2023-03-20T05:07:48.312Z,9.50
2023-03-20T05:09:50.212Z,9.50
2023-03-20T05:11:52.053Z,9.50
2023-03-20T05:13:59.779Z,9.50
2023-03-20T05:16:01.551Z,9.50
2023-03-20T05:18:03.798Z,9.50
2023-03-20T05:20:06.062Z,9.50
2023-03-20T05:22:07.746Z,9.50
2023-03-20T05:24:09.581Z,9.40
2023-03-20T05:26:11.237Z,9.50
2023-03-20T05:28:12.890Z,9.40
2023-03-20T05:30:14.767Z,9.40
2023-03-20T05:32:16.463Z,9.50
2023-03-20T05:34:18.250Z,9.50
2023-03-20T05:36:22.040Z,9.50
2023-03-20T05:38:23.919Z,9.50
2023-03-20T05:40:25.850Z,9.60
2023-03-20T05:42:27.562Z,9.60
2023-03-20T05:44:29.343Z,9.60
2023-03-20T05:46:31.135Z,9.50
2023-03-20T05:48:32.894Z,9.60
2023-03-20T05:50:34.659Z,9.60
2023-03-20T05:52:36.379Z,9.60
2023-03-20T05:54:38.050Z,9.60
2023-03-20T05:56:39.842Z,9.60
2023-03-20T05:58:42.387Z,9.60
2023-03-20T06:00:46.126Z,9.60
2023-03-20T06:02:47.909Z,9.60
2023-03-20T06:04:49.761Z,9.60
2023-03-20T06:06:51.461Z,9.60
2023-03-20T06:08:53.098Z,9.60
2023-03-20T06:10:54.714Z,9.70
2023-03-20T06:12:57.139Z,9.70
2023-03-20T06:14:58.826Z,9.70
2023-03-20T06:17:00.911Z,9.70
2023-03-20T06:19:02.594Z,9.70
2023-03-20T06:21:05.977Z,9.70
2023-03-20T06:23:08.039Z,9.70
2023-03-20T06:25:09.955Z,9.70
2023-03-20T06:27:11.846Z,9.70
2023-03-20T06:29:13.651Z,9.80
2023-03-20T06:31:15.498Z,9.80
2023-03-20T06:33:17.184Z,9.80
2023-03-20T06:35:19.199Z,9.80
2023-03-20T06:37:22.008Z,9.90
2023-03-20T06:39:23.710Z,10.00
2023-03-20T06:41:34.137Z,10.10
2023-03-20T06:43:37.190Z,10.00
2023-03-20T06:45:39.040Z,10.00
2023-03-20T06:47:40.842Z,10.10
2023-03-20T06:49:45.589Z,10.10
2023-03-20T06:51:48.178Z,10.10
2023-03-20T06:53:49.904Z,10.20
2023-03-20T06:55:51.658Z,10.30
2023-03-20T06:57:53.292Z,10.30
2023-03-20T06:59:58.214Z,10.30
2023-03-20T07:02:00.267Z,10.30
2023-03-20T07:04:02.248Z,10.40
2023-03-20T07:06:04.055Z,10.40
2023-03-20T07:08:07.322Z,10.50
2023-03-20T07:10:09.916Z,10.50
2023-03-20T07:12:14.457Z,10.50
2023-03-20T07:14:16.160Z,10.60
2023-03-20T07:16:18.055Z,10.60
2023-03-20T07:18:19.861Z,10.70
2023-03-20T07:20:21.713Z,10.80
2023-03-20T07:22:26.005Z,10.90
2023-03-20T07:24:28.173Z,11.00
2023-03-20T07:26:30.229Z,11.00
2023-03-20T07:28:31.890Z,10.90
2023-03-20T07:30:33.694Z,10.80
2023-03-20T07:32:37.655Z,10.80
2023-03-20T07:34:39.552Z,10.80
2023-03-20T07:36:44.675Z,10.80
2023-03-20T07:38:46.577Z,10.80
2023-03-20T07:40:51.720Z,10.80
2023-03-20T07:43:02.440Z,10.80
2023-03-20T07:45:05.108Z,10.80
2023-03-20T07:47:07.393Z,10.90
2023-03-20T07:49:11.224Z,10.90
2023-03-20T07:51:13.083Z,10.90
2023-03-20T07:53:17.179Z,11.10
2023-03-20T07:55:19.488Z,11.10
2023-03-20T07:57:21.508Z,11.20
2023-03-20T07:59:30.795Z,11.20
2023-03-20T08:01:32.903Z,11.30
2023-03-20T08:03:34.993Z,11.30
2023-03-20T08:05:40.962Z,11.20
2023-03-20T08:07:46.231Z,11.20
2023-03-20T08:09:53.547Z,11.30
2023-03-20T08:11:59.471Z,11.50
2023-03-20T08:14:03.887Z,11.60
2023-03-20T08:16:15.043Z,11.70
2023-03-20T08:18:17.050Z,11.90
2023-03-20T08:20:20.481Z,12.10
2023-03-20T08:22:25.668Z,12.30
2023-03-20T08:26:51.166Z,12.40
2023-03-20T08:28:55.359Z,12.00
2023-03-20T08:31:18.705Z,12.10
2023-03-20T08:33:25.109Z,12.10
2023-03-20T08:35:33.820Z,12.20
2023-03-20T08:37:44.829Z,12.00
2023-03-20T08:39:46.716Z,11.50
2023-03-20T08:41:50.071Z,11.30
2023-03-20T08:43:53.154Z,11.40
2023-03-20T08:45:56.357Z,11.60
2023-03-20T08:47:58.520Z,11.80
2023-03-20T08:50:00.489Z,11.70
2023-03-20T08:52:02.541Z,11.80
2023-03-20T08:54:04.529Z,12.00
2023-03-20T08:56:06.721Z,12.20
2023-03-20T08:58:08.560Z,12.30
2023-03-20T09:00:12.960Z,12.30
2023-03-20T09:02:15.030Z,12.30
2023-03-20T09:04:27.746Z,12.30
2023-03-20T09:06:41.356Z,12.30
2023-03-20T09:08:47.379Z,12.40
2023-03-20T09:10:53.446Z,12.30
2023-03-20T09:13:23.517Z,12.50
2023-03-20T09:15:39.989Z,12.80
2023-03-20T09:17:44.594Z,12.70
2023-03-20T09:19:46.468Z,12.70
2023-03-20T09:21:52.637Z,12.40
2023-03-20T09:23:58.320Z,12.60
2023-03-20T09:26:00.467Z,12.60
2023-03-20T09:28:02.377Z,12.70
2023-03-20T09:30:05.338Z,12.70
2023-03-20T09:32:12.388Z,13.00
2023-03-20T09:34:14.335Z,13.20
2023-03-20T09:36:16.126Z,13.20
2023-03-20T09:38:19.670Z,13.20
2023-03-20T09:40:30.586Z,13.20
2023-03-20T09:42:39.772Z,13.20
2023-03-20T09:44:51.007Z,13.30
2023-03-20T09:47:21.234Z,13.40
2023-03-20T09:49:26.521Z,13.50
2023-03-20T09:51:34.460Z,13.70
2023-03-20T09:53:47.665Z,13.50
2023-03-20T09:55:51.557Z,13.40
2023-03-20T09:57:56.548Z,13.60
2023-03-20T10:00:01.517Z,13.80
2023-03-20T10:02:13.152Z,13.80
2023-03-20T10:04:15.364Z,13.80
2023-03-20T10:06:18.186Z,13.80
2023-03-20T10:08:22.081Z,13.80
2023-03-20T10:10:29.826Z,13.90
2023-03-20T10:12:51.424Z,13.90
2023-03-20T10:15:12.247Z,13.80
2023-03-20T10:17:37.007Z,13.70
2023-03-20T10:20:00.063Z,13.40
2023-03-20T10:22:08.481Z,13.40
2023-03-20T10:24:28.417Z,13.50
2023-03-20T10:28:59.141Z,13.30
2023-03-20T10:31:16.561Z,13.40
2023-03-20T10:35:45.556Z,13.20
2023-03-20T10:38:06.347Z,13.10
2023-03-20T10:40:08.436Z,13.20
2023-03-20T10:42:30.037Z,13.10
2023-03-20T10:44:40.448Z,13.00
2023-03-20T10:46:43.838Z,12.90
2023-03-20T10:48:47.945Z,12.90
2023-03-20T10:50:56.761Z,13.10
2023-03-20T10:52:59.517Z,13.00
2023-03-20T10:55:04.953Z,13.10
2023-03-20T10:57:10.469Z,13.10
2023-03-20T10:59:35.063Z,13.00
2023-03-20T11:01:36.728Z,13.20
2023-03-20T11:03:39.926Z,13.30
2023-03-20T11:05:41.954Z,13.20
2023-03-20T11:07:44.526Z,13.20
2023-03-20T11:09:46.457Z,13.10
2023-03-20T11:11:49.004Z,13.20
2023-03-20T11:13:51.771Z,13.20
2023-03-20T11:15:54.090Z,13.10
2023-03-20T11:17:59.793Z,13.10
2023-03-20T11:20:05.212Z,13.00
2023-03-20T11:22:22.635Z,12.90
2023-03-20T11:24:24.311Z,12.80
2023-03-20T11:26:35.104Z,12.90
2023-03-20T11:28:41.675Z,12.80
2023-03-20T11:31:01.418Z,12.90
2023-03-20T11:33:05.038Z,12.80
2023-03-20T11:35:28.532Z,12.80
2023-03-20T11:37:33.974Z,12.80
2023-03-20T11:39:37.560Z,12.80
2023-03-20T11:41:58.368Z,12.80
2023-03-20T11:44:00.325Z,12.60
2023-03-20T11:46:04.382Z,12.60
2023-03-20T11:48:06.774Z,12.60
2023-03-20T11:50:41.267Z,12.60
2023-03-20T11:52:58.628Z,12.60
2023-03-20T11:55:40.193Z,12.70
2023-03-20T11:57:58.567Z,12.90
2023-03-20T12:00:19.270Z,12.80
2023-03-20T12:02:25.245Z,12.80
2023-03-20T12:04:29.673Z,12.80
2023-03-20T12:06:40.584Z,12.80
2023-03-20T12:08:45.862Z,12.70
2023-03-20T12:10:57.497Z,12.70
2023-03-20T12:13:05.866Z,12.60
2023-03-20T12:15:15.160Z,12.70
2023-03-20T12:17:40.952Z,12.90
2023-03-20T12:19:44.093Z,12.90
2023-03-20T12:21:48.583Z,13.00
2023-03-20T12:23:57.881Z,13.10
2023-03-20T12:25:59.545Z,13.10
2023-03-20T12:28:03.429Z,12.80
2023-03-20T12:30:14.652Z,12.90
2023-03-20T12:32:25.915Z,13.00
2023-03-20T12:34:40.429Z,13.10
2023-03-20T12:36:44.550Z,13.30
2023-03-20T12:38:49.685Z,14.00
2023-03-20T12:40:54.211Z,16.20
2023-03-20T12:42:58.849Z,16.90
2023-03-20T12:45:11.358Z,17.50
2023-03-20T12:47:18.821Z,18.30
2023-03-20T12:49:26.561Z,16.30
2023-03-20T12:51:29.436Z,16.50
2023-03-20T12:53:31.064Z,18.90
2023-03-20T12:55:32.781Z,20.90
2023-03-20T12:57:53.418Z,20.10
2023-03-20T12:59:58.138Z,18.70
2023-03-20T13:02:23.138Z,18.60
2023-03-20T13:04:33.468Z,17.70
2023-03-20T13:07:12.829Z,16.40
2023-03-20T13:09:55.511Z,15.10
2023-03-20T13:12:28.607Z,16.60
2023-03-20T13:14:44.613Z,16.70
2023-03-20T13:17:16.093Z,17.00
2023-03-20T13:19:26.174Z,18.40
2023-03-20T13:21:50.107Z,19.90
2023-03-20T13:24:03.212Z,18.80
2023-03-20T13:26:17.789Z,19.30
2023-03-20T13:28:44.968Z,18.20
2023-03-20T13:30:54.302Z,16.10
2023-03-20T13:33:01.163Z,16.60
2023-03-20T13:35:28.880Z,16.40
2023-03-20T13:37:37.505Z,15.50
2023-03-20T13:39:56.203Z,15.80
2023-03-20T13:42:13.764Z,16.10
2023-03-20T13:44:27.827Z,16.00
2023-03-20T13:46:29.901Z,15.50
2023-03-20T13:48:48.141Z,14.90
2023-03-20T13:50:55.970Z,15.20
2023-03-20T13:53:29.466Z,15.90
2023-03-20T13:55:57.387Z,15.90
2023-03-20T13:58:21.687Z,15.90
2023-03-20T14:00:43.361Z,15.80
2023-03-20T14:03:03.206Z,15.00
2023-03-20T14:05:11.590Z,14.50
2023-03-20T14:07:32.173Z,14.50
2023-03-20T14:09:37.405Z,14.70
2023-03-20T14:11:39.353Z,14.70
2023-03-20T14:13:44.294Z,14.50
2023-03-20T14:15:53.663Z,14.40
2023-03-20T14:17:58.216Z,14.20
2023-03-20T14:20:20.178Z,14.40
2023-03-20T14:22:31.758Z,14.50
2023-03-20T14:24:36.217Z,14.90
2023-03-20T14:26:38.728Z,14.70
2023-03-20T14:28:45.213Z,14.80
2023-03-20T14:30:57.864Z,14.90
2023-03-20T14:33:01.248Z,15.00
2023-03-20T14:35:24.705Z,15.10
2023-03-20T14:37:32.116Z,14.60
2023-03-20T14:39:57.213Z,14.40
2023-03-20T14:42:06.764Z,14.30
2023-03-20T14:44:18.277Z,14.30
2023-03-20T14:46:47.328Z,14.40
2023-03-20T14:49:05.726Z,14.40
2023-03-20T14:51:23.128Z,14.40
2023-03-20T14:53:36.984Z,14.40
2023-03-20T14:56:00.161Z,14.50
2023-03-20T15:00:32.502Z,14.30
2023-03-20T15:03:01.312Z,14.40
2023-03-20T15:05:27.160Z,14.30
2023-03-20T15:10:19.659Z,14.30
2023-03-20T15:12:51.387Z,14.30
2023-03-20T15:15:25.942Z,14.20
2023-03-20T15:18:01.279Z,14.10
2023-03-20T15:24:12.863Z,13.90
2023-03-20T15:26:32.142Z,13.90
2023-03-20T15:28:40.442Z,14.00
2023-03-20T15:31:08.650Z,14.00
2023-03-20T15:33:40.316Z,14.10
2023-03-20T15:35:50.098Z,14.10
2023-03-20T15:40:56.592Z,14.10
2023-03-20T15:48:19.468Z,14.00
2023-03-20T15:50:28.733Z,13.90
2023-03-20T15:55:21.598Z,13.90
2023-03-20T15:57:40.883Z,13.80
2023-03-20T15:59:54.505Z,13.80
2023-03-20T16:02:05.478Z,13.80
2023-03-20T16:04:15.714Z,13.80
2023-03-20T16:06:24.482Z,13.80
2023-03-20T16:08:36.436Z,13.80
2023-03-20T16:10:43.898Z,13.80
2023-03-20T16:12:56.744Z,13.80
2023-03-20T16:15:14.157Z,13.80
2023-03-20T16:18:11.514Z,13.80
2023-03-20T16:20:01.619Z,13.70
2023-03-20T16:22:21.293Z,13.70
2023-03-20T16:24:30.584Z,13.60
2023-03-20T16:26:39.234Z,13.60
2023-03-20T16:28:48.176Z,13.60
2023-03-20T16:31:13.704Z,13.60
2023-03-20T16:33:28.172Z,13.60
2023-03-20T16:36:07.664Z,13.60
2023-03-20T16:38:46.693Z,13.60
2023-03-20T16:43:18.183Z,13.60
2023-03-20T16:45:34.495Z,13.60
2023-03-20T16:47:38.441Z,13.60
2023-03-20T16:49:55.570Z,13.60
2023-03-20T16:51:59.595Z,13.50
2023-03-20T16:54:01.580Z,13.50
2023-03-20T16:56:06.838Z,13.60
2023-03-20T16:58:18.552Z,13.50
2023-03-20T17:00:29.352Z,13.50
2023-03-20T17:02:42.563Z,13.40
2023-03-20T17:04:54.322Z,13.30
2023-03-20T17:07:07.016Z,13.30
2023-03-20T17:09:13.095Z,13.20
2023-03-20T17:11:23.524Z,13.10
2023-03-20T17:13:27.085Z,13.00
2023-03-20T17:15:28.969Z,12.90
2023-03-20T17:17:30.808Z,12.90
2023-03-20T17:19:32.961Z,12.80
2023-03-20T17:21:34.766Z,12.80
2023-03-20T17:23:36.711Z,12.80
2023-03-20T17:25:42.592Z,12.70
2023-03-20T17:27:46.757Z,12.70
2023-03-20T17:29:50.024Z,12.60
2023-03-20T17:31:55.978Z,12.50
2023-03-20T17:33:59.803Z,12.40
2023-03-20T17:36:03.789Z,12.40
2023-03-20T17:38:08.202Z,12.50
2023-03-20T17:40:21.107Z,12.50
2023-03-20T17:42:26.966Z,12.50
2023-03-20T17:44:32.215Z,12.50
2023-03-20T17:46:40.238Z,12.40
2023-03-20T17:48:53.163Z,12.40
2023-03-20T17:50:54.981Z,12.40
2023-03-20T17:52:56.838Z,12.30
2023-03-20T17:54:58.498Z,12.20
2023-03-20T17:57:01.416Z,12.20
2023-03-20T17:59:03.387Z,12.20
2023-03-20T18:01:06.919Z,12.20
2023-03-20T18:03:08.634Z,12.10
2023-03-20T18:05:10.649Z,12.00
2023-03-20T18:07:16.228Z,11.90
2023-03-20T18:09:21.201Z,11.90
2023-03-20T18:11:25.462Z,11.80
2023-03-20T18:13:29.536Z,11.80
2023-03-20T18:15:40.418Z,11.70
2023-03-20T18:17:42.409Z,11.70
2023-03-20T18:19:44.546Z,11.70
2023-03-20T18:21:51.160Z,11.60
2023-03-20T18:23:53.034Z,11.50
2023-03-20T18:25:55.042Z,11.50
2023-03-20T18:27:57.668Z,11.50
2023-03-20T18:29:59.752Z,11.40
2023-03-20T18:32:02.695Z,11.40
2023-03-20T18:34:04.515Z,11.40
2023-03-20T18:36:10.333Z,11.30
2023-03-20T18:38:13.614Z,11.30
2023-03-20T18:40:26.301Z,11.30
2023-03-20T18:42:28.064Z,11.30
2023-03-20T18:44:29.976Z,11.30
2023-03-20T18:46:31.802Z,11.40
2023-03-20T18:48:33.811Z,11.40
2023-03-20T18:50:37.788Z,11.50
2023-03-20T18:52:40.025Z,11.50
2023-03-20T18:54:49.462Z,11.50
2023-03-20T18:56:57.945Z,11.50
2023-03-20T18:59:06.632Z,11.40
2023-03-20T19:01:12.847Z,11.40
2023-03-20T19:03:19.278Z,11.40
2023-03-20T19:05:21.799Z,11.40
2023-03-20T19:07:23.488Z,11.40
2023-03-20T19:09:25.320Z,11.40
2023-03-20T19:11:27.130Z,11.30
2023-03-20T19:13:30.827Z,11.30
2023-03-20T19:15:36.807Z,11.20
2023-03-20T19:17:52.352Z,11.30
2023-03-20T19:25:50.470Z,11.20
2023-03-20T19:27:57.915Z,11.20
2023-03-20T19:30:59.595Z,11.10
2023-03-20T19:33:42.090Z,11.10
2023-03-20T19:36:02.427Z,11.10
2023-03-20T19:40:47.088Z,11.00
2023-03-20T19:43:25.350Z,11.00
2023-03-20T19:46:01.186Z,11.10
2023-03-20T19:48:50.469Z,11.10
2023-03-20T19:51:21.794Z,11.00
2023-03-20T19:53:48.740Z,11.00
2023-03-20T20:01:32.683Z,11.00
2023-03-20T20:10:23.739Z,11.00
2023-03-20T20:12:25.498Z,11.00
2023-03-20T20:14:27.265Z,10.90
2023-03-20T20:16:29.025Z,10.90
2023-03-20T20:18:30.895Z,10.80
2023-03-20T20:20:40.774Z,10.80
2023-03-20T20:22:54.603Z,10.80
2023-03-20T20:25:00.038Z,10.80
2023-03-20T20:27:16.905Z,10.80
2023-03-20T20:29:20.613Z,10.70
2023-03-20T20:31:30.778Z,10.70
2023-03-20T20:33:34.391Z,10.70
2023-03-20T20:35:56.448Z,10.70
2023-03-20T20:40:24.212Z,10.50
2023-03-20T20:42:26.329Z,10.50
2023-03-20T20:44:28.129Z,10.40
2023-03-20T20:46:29.866Z,10.40
2023-03-20T20:48:32.198Z,10.30
2023-03-20T20:50:35.986Z,10.30
2023-03-20T20:52:41.424Z,10.20
2023-03-20T20:54:43.486Z,10.20
2023-03-20T20:56:45.296Z,10.10
2023-03-20T20:58:50.792Z,10.20
2023-03-20T21:00:55.424Z,10.10
2023-03-20T21:03:00.086Z,10.10
2023-03-20T21:05:01.758Z,10.10
2023-03-20T21:07:09.799Z,10.00
2023-03-20T21:09:16.355Z,10.10
2023-03-20T21:11:18.601Z,10.20
2023-03-20T21:13:21.400Z,10.10
2023-03-20T21:15:32.631Z,10.10
2023-03-20T21:17:34.350Z,10.10
2023-03-20T21:19:37.369Z,10.10
2023-03-20T21:21:40.607Z,10.00
2023-03-20T21:23:45.258Z,10.10
2023-03-20T21:25:48.648Z,10.10
2023-03-20T21:27:54.149Z,10.00
2023-03-20T21:30:00.734Z,10.20
2023-03-20T21:32:02.411Z,10.10
2023-03-20T21:34:06.066Z,10.10
2023-03-20T21:36:07.814Z,10.00
2023-03-20T21:40:31.245Z,10.10
2023-03-20T21:42:34.878Z,10.10
2023-03-20T21:47:48.539Z,10.00
2023-03-20T21:57:07.995Z,10.00
2023-03-20T21:59:33.179Z,9.90
2023-03-20T22:04:31.840Z,9.80
2023-03-20T22:06:53.848Z,9.80
2023-03-20T22:11:35.094Z,9.90
2023-03-20T22:16:12.919Z,9.80
2023-03-20T22:18:42.552Z,9.70
2023-03-20T22:28:02.671Z,9.70
2023-03-20T22:35:19.573Z,9.90
2023-03-20T22:37:39.483Z,9.80
2023-03-20T22:40:08.707Z,9.70
2023-03-20T22:46:47.864Z,9.70
2023-03-20T22:48:52.265Z,9.70
2023-03-20T22:50:53.958Z,9.70
2023-03-20T22:52:55.683Z,9.70
2023-03-20T22:54:58.668Z,9.70
2023-03-20T22:57:01.161Z,9.60
2023-03-20T22:59:03.002Z,9.60
2023-03-20T23:01:05.128Z,9.60
2023-03-20T23:03:19.475Z,9.60
2023-03-20T23:05:24.409Z,9.60
2023-03-20T23:07:26.430Z,9.60
2023-03-20T23:09:28.576Z,9.60
2023-03-20T23:11:30.571Z,9.60
2023-03-20T23:13:32.255Z,9.50
2023-03-20T23:15:34.356Z,9.50
2023-03-20T23:17:39.235Z,9.50
2023-03-20T23:19:47.988Z,9.70
2023-03-20T23:21:53.723Z,9.70
2023-03-20T23:23:55.555Z,9.60
2023-03-20T23:26:09.603Z,9.50
2023-03-20T23:28:13.672Z,9.50
2023-03-20T23:30:16.057Z,9.50
2023-03-20T23:32:17.814Z,9.50
2023-03-20T23:34:28.394Z,9.50
2023-03-20T23:36:36.767Z,9.50
2023-03-20T23:38:39.093Z,9.50
2023-03-20T23:40:42.064Z,9.50
2023-03-20T23:42:44.070Z,9.50
2023-03-20T23:44:55.394Z,9.50
2023-03-20T23:47:17.807Z,9.50
2023-03-20T23:49:22.459Z,9.50
2023-03-20T23:51:24.336Z,9.50
2023-03-20T23:53:26.234Z,9.50
2023-03-20T23:55:31.674Z,9.50
2023-03-20T23:57:34.552Z,9.40
2023-03-20T23:59:37.338Z,9.40
